Time;durP1;ratioP1;P1;durP2;ratioP2;P2;SDS_P1;SDS_P2;PMS_P1;PMS_P2;Temp;Humidity;BMP_temperature;BMP_pressure;BME280_temperature;BME280_humidity;BME280_pressure;Samples;Min_cycle;Max_cycle;Signal;HPM_P1;HPM_P2
2021/11/18 00:02:13;;;;;;;;;;;;;;;4.61;87.43;97551.91;5074787;28;19952;-74
2021/11/18 00:04:39;;;;;;;;;;;;;;;4.64;87.48;97558.56;5075424;28;19953;-74
2021/11/18 00:07:04;;;;;;;;;;;;;;;4.63;87.34;97557.78;5074902;28;20010;-74
2021/11/18 00:09:30;;;;;;;;;;;;;;;4.66;87.31;97561.84;5074956;28;19970;-74
2021/11/18 00:11:56;;;;;;;;;;;;;;;4.64;87.39;97559.41;5074933;28;20316;-74
2021/11/18 00:14:23;;;;;;;;;;;;;;;4.62;87.72;97552.72;5074715;28;19992;-74
2021/11/18 00:16:49;;;;;;;;;;;;;;;4.60;86.99;97560.69;5075408;28;19951;-74
2021/11/18 00:19:15;;;;;;;;;;;;;;;4.59;87.27;97560.84;5074747;28;20317;-74
2021/11/18 00:21:42;;;;;;;;;;;;;;;4.59;87.62;97560.84;5074695;28;19953;-74
2021/11/18 00:24:10;;;;;;;;;;;;;;;4.61;87.61;97557.09;5074693;28;19966;-74
2021/11/18 00:26:37;;;;;;;;;;;;;;;4.63;87.54;97562.16;5074626;28;19962;-74
2021/11/18 00:29:05;;;;;;;;;;;;;;;4.67;87.62;97556.50;5074910;28;19965;-74
2021/11/18 00:31:33;;;;;;;;;;;;;;;4.69;87.21;97556.34;5074631;28;19953;-74
2021/11/18 00:34:00;;;;;;;;;;;;;;;4.74;87.03;97558.50;5074506;28;19985;-75
2021/11/18 00:36:26;;;;;;;;;;;;;;;4.72;86.91;97556.03;5061068;28;19963;-74
2021/11/18 00:38:52;;;;;;;;;;;;;;;4.65;87.16;97548.03;5074319;28;19960;-73
2021/11/18 00:41:19;;;;;;;;;;;;;;;4.58;87.26;97554.03;5074468;28;19957;-74
2021/11/18 00:43:46;;;;;;;;;;;;;;;4.54;87.54;97553.50;5074026;28;19957;-74
2021/11/18 00:46:12;;;;;;;;;;;;;;;4.52;88.14;97552.84;5074713;28;20456;-74
2021/11/18 00:48:39;;;;;;;;;;;;;;;4.54;88.29;97547.50;5074140;28;19956;-74
2021/11/18 00:51:07;;;;;;;;;;;;;;;4.50;87.70;97544.38;5074085;28;19966;-74
2021/11/18 00:53:38;;;;;;;;;;;;;;;4.51;87.93;97555.56;5074336;28;19957;-74
2021/11/18 00:56:04;;;;;;;;;;;;;;;4.53;87.85;97558.84;5058849;28;19973;-74
2021/11/18 00:58:30;;;;;;;;;;;;;;;4.53;87.78;97551.84;5074489;28;19963;-74
2021/11/18 01:00:56;;;;;;;;;;;;;;;4.54;87.93;97563.09;5074105;28;19966;-74
2021/11/18 01:03:23;;;;;;;;;;;;;;;4.53;87.87;97559.66;5073788;28;19953;-74
2021/11/18 01:05:50;;;;;;;;;;;;;;;4.53;87.43;97557.06;5074026;28;19963;-74
2021/11/18 01:08:16;;;;;;;;;;;;;;;4.55;87.84;97549.13;5073836;28;19959;-73
2021/11/18 01:10:44;;;;;;;;;;;;;;;4.57;87.66;97558.38;5073680;28;19960;-73
2021/11/18 01:13:10;;;;;;;;;;;;;;;4.58;87.88;97551.41;5074029;28;19962;-73
2021/11/18 01:15:38;;;;;;;;;;;;;;;4.63;87.65;97556.97;5073765;28;20038;-74
2021/11/18 01:18:04;;;;;;;;;;;;;;;4.68;87.55;97557.31;5073871;28;20312;-73
2021/11/18 01:20:31;;;;;;;;;;;;;;;4.68;87.29;97552.13;5073871;28;19955;-74
2021/11/18 01:22:58;;;;;;;;;;;;;;;4.68;87.14;97559.91;5073611;28;19965;-74
2021/11/18 01:25:24;;;;;;;;;;;;;;;4.64;87.40;97556.81;5073691;28;19950;-74
2021/11/18 01:27:50;;;;;;;;;;;;;;;4.66;87.30;97559.25;5073569;28;19973;-73
2021/11/18 01:30:20;;;;;;;;;;;;;;;4.66;87.49;97546.25;5074077;28;20411;-74
2021/11/18 01:32:47;;;;;;;;;;;;;;;4.64;87.34;97541.22;5073871;28;19962;-72
2021/11/18 01:35:13;;;;;;;;;;;;;;;4.61;87.19;97549.31;5073864;28;19981;-74
2021/11/18 01:37:39;;;;;;;;;;;;;;;4.59;87.48;97560.84;5073661;28;19964;-74
2021/11/18 01:40:06;;;;;;;;;;;;;;;4.62;87.67;97563.13;5073747;28;19963;-74
2021/11/18 01:42:32;;;;;;;;;;;;;;;4.64;87.52;97554.22;5073460;28;19958;-74
2021/11/18 01:44:58;;;;;;;;;;;;;;;4.68;87.58;97559.91;5073880;28;20330;-74
2021/11/18 01:47:24;;;;;;;;;;;;;;;4.71;87.41;97561.41;5073281;28;20053;-73
2021/11/18 01:49:50;;;;;;;;;;;;;;;4.74;87.12;97567.09;5073348;28;19960;-74
2021/11/18 01:52:18;;;;;;;;;;;;;;;4.77;87.11;97569.41;5073384;28;20337;-75
2021/11/18 01:54:44;;;;;;;;;;;;;;;4.79;87.20;97570.06;5073549;28;19969;-74
2021/11/18 01:57:13;;;;;;;;;;;;;;;4.80;86.80;97576.06;5073100;28;20093;-73
2021/11/18 01:59:40;;;;;;;;;;;;;;;4.79;86.84;97583.06;5073506;28;19968;-73
2021/11/18 02:02:07;;;;;;;;;;;;;;;4.80;86.84;97581.28;5072119;28;19947;-73
2021/11/18 02:04:33;;;;;;;;;;;;;;;4.81;86.70;97568.13;5073353;28;19962;-74
2021/11/18 02:07:03;;;;;;;;;;;;;;;4.80;86.70;97573.47;5073134;28;19968;-74
2021/11/18 02:09:34;;;;;;;;;;;;;;;4.78;86.84;97571.00;5073931;28;19948;-73
2021/11/18 02:12:05;;;;;;;;;;;;;;;4.76;87.03;97572.94;5073301;28;19953;-74
2021/11/18 02:14:32;;;;;;;;;;;;;;;4.74;86.96;97572.28;5056897;28;20401;-73
2021/11/18 02:17:01;;;;;;;;;;;;;;;4.71;87.04;97569.19;5072079;28;19958;-73
2021/11/18 02:19:28;;;;;;;;;;;;;;;4.72;87.33;97571.63;5074759;28;19972;-74
2021/11/18 02:21:54;;;;;;;;;;;;;;;4.75;87.04;97568.75;5077105;28;20019;-74
2021/11/18 02:24:29;;;;;;;;;;;;;;;4.77;87.10;97574.59;5076885;28;20428;-74
2021/11/18 02:26:55;;;;;;;;;;;;;;;4.80;87.38;97578.66;5077074;28;20435;-74
2021/11/18 02:29:21;;;;;;;;;;;;;;;4.79;87.06;97577.06;5076942;28;19969;-74
2021/11/18 02:31:50;;;;;;;;;;;;;;;4.80;87.14;97583.88;5076752;28;20397;-76
2021/11/18 02:34:19;;;;;;;;;;;;;;;4.83;87.27;97586.97;5076649;28;19973;-74
2021/11/18 02:36:45;;;;;;;;;;;;;;;4.81;86.96;97586.31;5076823;28;20335;-74
2021/11/18 02:39:12;;;;;;;;;;;;;;;4.80;86.92;97587.28;5076685;28;19947;-74
2021/11/18 02:41:38;;;;;;;;;;;;;;;4.76;86.94;97578.16;5075767;28;20411;-74
2021/11/18 02:44:04;;;;;;;;;;;;;;;4.74;87.00;97579.28;5076960;28;19956;-73
2021/11/18 02:46:31;;;;;;;;;;;;;;;4.70;87.37;97588.34;5076517;28;19958;-73
2021/11/18 02:48:56;;;;;;;;;;;;;;;4.69;87.42;97595.34;5076620;28;19961;-73
2021/11/18 02:51:23;;;;;;;;;;;;;;;4.72;87.68;97608.00;5076340;28;19948;-73
2021/11/18 02:53:50;;;;;;;;;;;;;;;4.78;87.51;97604.00;5076223;28;19958;-74
2021/11/18 02:56:18;;;;;;;;;;;;;;;4.82;87.59;97597.53;5076648;28;19970;-74
2021/11/18 02:58:44;;;;;;;;;;;;;;;4.82;87.00;97606.13;5076202;28;20331;-74
2021/11/18 03:01:16;;;;;;;;;;;;;;;4.81;87.24;97604.50;5075363;28;20361;-74
2021/11/18 03:03:42;;;;;;;;;;;;;;;4.84;87.04;97601.59;5076117;28;19965;-74
2021/11/18 03:06:08;;;;;;;;;;;;;;;4.86;86.92;97598.84;5076142;28;19956;-74
2021/11/18 03:08:34;;;;;;;;;;;;;;;4.88;86.98;97596.91;5076150;28;20301;-74
2021/11/18 03:11:00;;;;;;;;;;;;;;;4.89;86.92;97606.31;5076269;28;19967;-74
2021/11/18 03:13:27;;;;;;;;;;;;;;;4.91;87.20;97614.78;5076055;28;19954;-74
2021/11/18 03:15:55;;;;;;;;;;;;;;;4.92;87.01;97613.84;5076323;28;19955;-74
2021/11/18 03:18:22;;;;;;;;;;;;;;;4.91;87.01;97612.19;5075733;28;19945;-74
2021/11/18 03:20:49;;;;;;;;;;;;;;;4.91;87.00;97612.19;5075982;28;19966;-74
2021/11/18 03:23:15;;;;;;;;;;;;;;;4.93;87.31;97606.84;5076078;28;19958;-74
2021/11/18 03:25:41;;;;;;;;;;;;;;;4.95;87.22;97617.91;5075889;28;20374;-74
2021/11/18 03:28:07;;;;;;;;;;;;;;;4.94;87.25;97609.31;5075891;28;20325;-75
2021/11/18 03:30:35;;;;;;;;;;;;;;;4.94;87.02;97606.69;5075551;28;19955;-74
2021/11/18 03:33:04;;;;;;;;;;;;;;;4.96;87.39;97609.16;5075996;28;19955;-75
2021/11/18 03:35:29;;;;;;;;;;;;;;;4.98;87.42;97597.63;5075896;28;19958;-75
2021/11/18 03:37:56;;;;;;;;;;;;;;;4.98;87.34;97595.03;5075579;28;20047;-76
2021/11/18 03:40:22;;;;;;;;;;;;;;;4.98;87.36;97613.22;5075717;28;19951;-76
2021/11/18 03:42:48;;;;;;;;;;;;;;;5.00;87.41;97608.69;5075833;28;19959;-75
2021/11/18 03:45:14;;;;;;;;;;;;;;;5.01;87.22;97612.91;5075564;28;19967;-74
2021/11/18 03:47:41;;;;;;;;;;;;;;;5.01;87.09;97618.09;5074172;28;19969;-74
2021/11/18 03:50:08;;;;;;;;;;;;;;;5.00;87.07;97620.88;5075949;28;19958;-75
2021/11/18 03:52:35;;;;;;;;;;;;;;;4.98;86.93;97617.63;5063927;28;19955;-74
2021/11/18 03:55:01;;;;;;;;;;;;;;;4.95;86.95;97618.72;5075190;28;19982;-75
2021/11/18 03:57:26;;;;;;;;;;;;;;;4.93;87.38;97612.84;5075296;28;20046;-74
2021/11/18 03:59:52;;;;;;;;;;;;;;;4.95;87.34;97615.31;5075712;28;20460;-74
2021/11/18 04:02:19;;;;;;;;;;;;;;;4.96;87.61;97611.75;5075063;28;19968;-74
2021/11/18 04:04:47;;;;;;;;;;;;;;;4.98;87.58;97622.81;5074879;28;19965;-75
2021/11/18 04:07:14;;;;;;;;;;;;;;;5.01;87.79;97625.91;5057267;28;19970;-74
2021/11/18 04:09:40;;;;;;;;;;;;;;;5.02;87.58;97627.56;5074938;28;19959;-74
2021/11/18 04:12:08;;;;;;;;;;;;;;;5.04;87.36;97622.19;5074686;28;19954;-74
2021/11/18 04:14:35;;;;;;;;;;;;;;;5.06;87.31;97635.84;5075637;28;19952;-74
2021/11/18 04:17:02;;;;;;;;;;;;;;;5.01;87.12;97640.69;5075123;28;19950;-74
2021/11/18 04:19:28;;;;;;;;;;;;;;;4.95;87.40;97636.09;5074690;28;19953;-74
2021/11/18 04:21:55;;;;;;;;;;;;;;;4.93;87.58;97636.25;5074831;28;19966;-74
2021/11/18 04:24:22;;;;;;;;;;;;;;;4.94;87.78;97634.50;5074857;28;20422;-74
2021/11/18 04:26:49;;;;;;;;;;;;;;;4.97;87.77;97642.78;5074309;28;19968;-74
2021/11/18 04:29:16;;;;;;;;;;;;;;;4.94;87.79;97640.50;5074842;28;19962;-74
2021/11/18 04:31:41;;;;;;;;;;;;;;;4.95;88.03;97636.91;5074723;28;19953;-73
2021/11/18 04:34:08;;;;;;;;;;;;;;;4.97;88.01;97637.56;5074436;28;20052;-74
2021/11/18 04:36:35;;;;;;;;;;;;;;;4.98;87.89;97635.81;5074552;28;19962;-74
2021/11/18 04:39:01;;;;;;;;;;;;;;;4.95;87.84;97634.31;5074455;28;19951;-74
2021/11/18 04:41:28;;;;;;;;;;;;;;;4.93;87.79;97635.44;5073970;28;19967;-74
2021/11/18 04:43:55;;;;;;;;;;;;;;;4.94;87.91;97642.28;5074762;28;19959;-74
2021/11/18 04:46:21;;;;;;;;;;;;;;;4.96;88.09;97651.56;5074132;28;19974;-73
2021/11/18 04:48:47;;;;;;;;;;;;;;;4.99;87.83;97659.03;5074369;28;19961;-74
2021/11/18 04:51:14;;;;;;;;;;;;;;;4.96;87.76;97654.16;5074156;28;19957;-74
2021/11/18 04:53:40;;;;;;;;;;;;;;;4.94;87.98;97655.28;5074295;28;19957;-74
2021/11/18 04:56:06;;;;;;;;;;;;;;;4.95;88.11;97659.50;5074027;28;19966;-74
2021/11/18 04:58:33;;;;;;;;;;;;;;;4.94;88.01;97661.28;5074415;28;19955;-74
2021/11/18 05:00:59;;;;;;;;;;;;;;;4.92;88.05;97663.22;5074074;28;19962;-74
2021/11/18 05:03:27;;;;;;;;;;;;;;;4.91;88.36;97663.38;5074361;28;19965;-73
2021/11/18 05:05:54;;;;;;;;;;;;;;;4.92;88.24;97665.03;5073872;28;20330;-75
2021/11/18 05:08:20;;;;;;;;;;;;;;;4.93;88.34;97675.25;5074038;28;20446;-73
2021/11/18 05:10:48;;;;;;;;;;;;;;;4.94;88.41;97666.50;5073804;28;19988;-74
2021/11/18 05:13:14;;;;;;;;;;;;;;;4.98;88.27;97665.22;5074015;28;19949;-73
2021/11/18 05:15:42;;;;;;;;;;;;;;;4.99;88.14;97666.03;5073771;28;19948;-74
2021/11/18 05:18:09;;;;;;;;;;;;;;;5.00;88.17;97663.28;5073868;28;19965;-74
2021/11/18 05:20:36;;;;;;;;;;;;;;;5.02;88.16;97666.56;5073737;28;19957;-74
2021/11/18 05:23:03;;;;;;;;;;;;;;;5.06;87.79;97677.44;5073250;28;20041;-74
2021/11/18 05:25:30;;;;;;;;;;;;;;;5.09;88.09;97666.75;5073711;28;19954;-74
2021/11/18 05:27:55;;;;;;;;;;;;;;;5.12;88.11;97655.22;5060026;28;19978;-74
2021/11/18 05:30:24;;;;;;;;;;;;;;;5.14;88.12;97663.69;5073901;28;19983;-75
2021/11/18 05:32:50;;;;;;;;;;;;;;;5.15;87.96;97670.53;5073706;28;19962;-74
2021/11/18 05:35:16;;;;;;;;;;;;;;;5.16;87.85;97674.75;5072459;28;20001;-74
2021/11/18 05:37:42;;;;;;;;;;;;;;;5.13;87.75;97675.88;5073888;28;19958;-74
2021/11/18 05:40:09;;;;;;;;;;;;;;;5.08;87.78;97676.34;5073571;28;20003;-74
2021/11/18 05:42:37;;;;;;;;;;;;;;;5.08;87.89;97685.91;5073549;28;19978;-74
2021/11/18 05:45:04;;;;;;;;;;;;;;;5.11;87.99;97695.22;5073646;28;19963;-74
2021/11/18 05:47:30;;;;;;;;;;;;;;;5.12;88.18;97692.44;5073279;28;20029;-74
2021/11/18 05:49:59;;;;;;;;;;;;;;;5.15;88.12;97693.94;5073503;28;19963;-74
2021/11/18 05:52:26;;;;;;;;;;;;;;;5.13;87.86;97685.47;5073363;28;19961;-74
2021/11/18 05:54:53;;;;;;;;;;;;;;;5.11;88.02;97700.41;5075773;28;19977;-74
2021/11/18 05:57:19;;;;;;;;;;;;;;;5.08;87.96;97697.16;5077727;28;19965;-74
2021/11/18 05:59:45;;;;;;;;;;;;;;;5.09;88.08;97695.34;5077646;28;20401;-73
2021/11/18 06:02:11;;;;;;;;;;;;;;;5.12;88.22;97699.44;5077607;28;19978;-72
2021/11/18 06:04:37;;;;;;;;;;;;;;;5.14;88.30;97694.88;5077945;28;19952;-74
2021/11/18 06:07:03;;;;;;;;;;;;;;;5.15;88.20;97697.34;5077931;28;20030;-74
2021/11/18 06:09:29;;;;;;;;;;;;;;;5.16;88.01;97695.56;5077181;28;20424;-74
2021/11/18 06:11:55;;;;;;;;;;;;;;;5.15;87.84;97701.75;5077419;28;20057;-74
2021/11/18 06:14:21;;;;;;;;;;;;;;;5.16;88.07;97704.16;5077254;28;19958;-74
2021/11/18 06:16:47;;;;;;;;;;;;;;;5.15;88.09;97710.34;5077056;28;20287;-74
2021/11/18 06:19:13;;;;;;;;;;;;;;;5.15;88.08;97709.53;5077280;28;19960;-73
2021/11/18 06:21:41;;;;;;;;;;;;;;;5.11;88.40;97710.81;5077453;28;19949;-75
2021/11/18 06:24:08;;;;;;;;;;;;;;;5.08;88.25;97706.72;5069291;28;19951;-74
2021/11/18 06:26:33;;;;;;;;;;;;;;;5.08;88.47;97712.75;5076925;28;19957;-73
2021/11/18 06:28:59;;;;;;;;;;;;;;;5.07;88.24;97711.09;5077018;28;20443;-74
2021/11/18 06:31:25;;;;;;;;;;;;;;;5.06;88.42;97722.47;5076856;28;20335;-74
2021/11/18 06:33:52;;;;;;;;;;;;;;;5.06;88.57;97725.09;5077503;28;19977;-74
2021/11/18 06:36:18;;;;;;;;;;;;;;;5.06;88.63;97726.84;5077172;28;19961;-74
2021/11/18 06:38:45;;;;;;;;;;;;;;;5.04;88.63;97724.41;5076618;28;19949;-74
2021/11/18 06:41:11;;;;;;;;;;;;;;;5.05;88.89;97730.41;5076708;28;19953;-74
2021/11/18 06:43:38;;;;;;;;;;;;;;;5.07;88.99;97725.88;5076771;28;19953;-74
2021/11/18 06:46:04;;;;;;;;;;;;;;;5.08;88.89;97730.09;5076521;28;19952;-73
2021/11/18 06:48:31;;;;;;;;;;;;;;;5.11;88.95;97729.00;5076588;28;19974;-74
2021/11/18 06:51:18;;;;;;;;;;;;;;;5.09;88.78;97727.38;5076732;28;20355;-74
2021/11/18 06:53:45;;;;;;;;;;;;;;;5.12;88.73;97734.03;5076378;28;20314;-75
2021/11/18 06:56:12;;;;;;;;;;;;;;;5.11;88.90;97742.00;5076427;28;19960;-74
2021/11/18 06:58:38;;;;;;;;;;;;;;;5.06;88.96;97745.03;5076222;28;19952;-74
2021/11/18 07:01:05;;;;;;;;;;;;;;;5.04;89.11;97742.63;5076447;28;19956;-74
2021/11/18 07:03:32;;;;;;;;;;;;;;;5.07;89.15;97741.50;5076208;28;20335;-74
2021/11/18 07:05:58;;;;;;;;;;;;;;;5.08;89.25;97748.31;5075658;28;19968;-73
2021/11/18 07:08:23;;;;;;;;;;;;;;;5.12;89.12;97760.03;5076131;28;19974;-74
2021/11/18 07:10:49;;;;;;;;;;;;;;;5.11;88.99;97755.81;5076289;28;19955;-74
2021/11/18 07:13:17;;;;;;;;;;;;;;;5.09;89.28;97758.56;5074874;28;19957;-74
2021/11/18 07:15:44;;;;;;;;;;;;;;;5.13;89.23;97759.09;5075903;28;19965;-74
2021/11/18 07:18:10;;;;;;;;;;;;;;;5.17;89.13;97764.81;5076031;28;19949;-74
2021/11/18 07:20:36;;;;;;;;;;;;;;;5.21;89.14;97764.34;5076213;28;20317;-73
2021/11/18 07:23:02;;;;;;;;;;;;;;;5.23;89.21;97761.63;5075878;28;19960;-75
2021/11/18 07:25:28;;;;;;;;;;;;;;;5.23;88.74;97772.03;5076040;28;19961;-74
2021/11/18 07:27:56;;;;;;;;;;;;;;;5.22;88.71;97771.19;5075864;28;19983;-74
2021/11/18 07:30:23;;;;;;;;;;;;;;;5.20;88.72;97777.50;5075747;28;19956;-74
2021/11/18 07:32:49;;;;;;;;;;;;;;;5.18;88.88;97774.25;5075752;28;19957;-74
2021/11/18 07:35:15;;;;;;;;;;;;;;;5.18;89.10;97763.84;5075684;28;19953;-74
2021/11/18 07:37:41;;;;;;;;;;;;;;;5.20;89.04;97770.50;5075756;28;19967;-74
2021/11/18 07:40:10;;;;;;;;;;;;;;;5.21;88.91;97772.16;5075689;28;19969;-74
2021/11/18 07:42:36;;;;;;;;;;;;;;;5.23;89.05;97783.22;5075875;28;19965;-74
2021/11/18 07:45:03;;;;;;;;;;;;;;;5.24;89.04;97789.25;5075273;28;19955;-74
2021/11/18 07:47:30;;;;;;;;;;;;;;;5.20;89.01;97783.50;5075600;28;19972;-73
2021/11/18 07:49:56;;;;;;;;;;;;;;;5.21;89.25;97798.16;5075426;28;20344;-74
2021/11/18 07:52:21;;;;;;;;;;;;;;;5.23;88.74;97787.63;5075317;28;19954;-74
2021/11/18 07:54:48;;;;;;;;;;;;;;;5.24;89.07;97800.47;5075328;28;19984;-74
2021/11/18 07:57:14;;;;;;;;;;;;;;;5.31;95.19;97799.84;5075593;28;19963;-74
2021/11/18 07:59:39;;;;;;;;;;;;;;;5.42;89.93;97794.44;5074000;28;20429;-74
2021/11/18 08:02:05;;;;;;;;;;;;;;;5.47;88.40;97803.41;5075466;28;19955;-74
2021/11/18 08:04:32;;;;;;;;;;;;;;;5.45;87.84;97802.72;5075408;28;19957;-74
2021/11/18 08:07:03;;;;;;;;;;;;;;;5.43;87.67;97807.25;5074975;28;20406;-74
2021/11/18 08:09:30;;;;;;;;;;;;;;;5.42;87.90;97805.66;5075370;28;19968;-74
2021/11/18 08:11:56;;;;;;;;;;;;;;;5.43;87.89;97803.84;5074878;28;20322;-74
2021/11/18 08:14:23;;;;;;;;;;;;;;;5.45;87.54;97804.53;5074768;28;19958;-74
2021/11/18 08:16:49;;;;;;;;;;;;;;;5.48;87.92;97804.19;5074215;28;19956;-74
2021/11/18 08:19:15;;;;;;;;;;;;;;;5.52;87.29;97799.53;5075041;28;20334;-74
2021/11/18 08:21:42;;;;;;;;;;;;;;;5.53;87.80;97798.56;5074618;28;19964;-75
2021/11/18 08:24:09;;;;;;;;;;;;;;;5.55;87.38;97804.44;5061484;28;20466;-75
2021/11/18 08:26:36;;;;;;;;;;;;;;;5.58;87.22;97802.31;5074806;28;19954;-74
2021/11/18 08:29:02;;;;;;;;;;;;;;;5.55;87.02;97800.03;5074348;28;19976;-74
2021/11/18 08:31:28;;;;;;;;;;;;;;;5.53;87.12;97807.19;5075095;28;19948;-74
2021/11/18 08:33:55;;;;;;;;;;;;;;;5.51;87.47;97810.91;5074351;28;19961;-75
2021/11/18 08:36:21;;;;;;;;;;;;;;;5.52;87.16;97813.34;5074631;28;19965;-75
2021/11/18 08:38:48;;;;;;;;;;;;;;;5.53;87.43;97808.97;5074758;28;20036;-74
2021/11/18 08:41:16;;;;;;;;;;;;;;;5.58;87.63;97817.94;5074596;28;19956;-75
2021/11/18 08:43:44;;;;;;;;;;;;;;;5.62;87.14;97816.66;5074444;28;19954;-74
2021/11/18 08:46:11;;;;;;;;;;;;;;;5.62;86.76;97816.66;5074477;28;19959;-74
2021/11/18 08:48:38;;;;;;;;;;;;;;;5.65;86.64;97813.78;5074341;28;19972;-74
2021/11/18 08:51:04;;;;;;;;;;;;;;;5.67;86.34;97813.63;5074206;28;19955;-74
2021/11/18 08:53:32;;;;;;;;;;;;;;;5.68;86.36;97816.06;5074452;28;19956;-74
2021/11/18 08:55:58;;;;;;;;;;;;;;;5.66;86.78;97815.38;5072969;28;19976;-74
2021/11/18 08:58:28;;;;;;;;;;;;;;;5.68;86.82;97817.84;5074041;28;19968;-74
2021/11/18 09:01:04;;;;;;;;;;;;;;;5.74;86.83;97819.84;5074079;28;19969;-75
2021/11/18 09:03:33;;;;;;;;;;;;;;;5.86;86.86;97810.81;5074080;28;19957;-75
2021/11/18 09:06:02;;;;;;;;;;;;;;;6.02;86.50;97810.09;5073873;28;20676;-74
2021/11/18 09:08:28;;;;;;;;;;;;;;;6.20;86.90;97812.63;5074250;28;19965;-74
2021/11/18 09:10:54;;;;;;;;;;;;;;;6.39;85.88;97813.38;5074018;28;19958;-74
2021/11/18 09:13:20;;;;;;;;;;;;;;;6.55;84.78;97825.63;5074189;28;20306;-74
2021/11/18 09:15:46;;;;;;;;;;;;;;;6.71;84.22;97820.47;5073710;28;19958;-74
2021/11/18 09:18:13;;;;;;;;;;;;;;;6.81;83.73;97821.13;5073897;28;19970;-74
2021/11/18 09:20:39;;;;;;;;;;;;;;;6.83;82.84;97813.16;5073741;28;19945;-75
2021/11/18 09:23:07;;;;;;;;;;;;;;;6.91;82.61;97816.59;5073838;28;19953;-74
2021/11/18 09:25:35;;;;;;;;;;;;;;;7.06;83.03;97819.38;5073863;28;19975;-75
2021/11/18 09:28:02;;;;;;;;;;;;;;;7.21;81.85;97823.97;5073406;28;19983;-74
2021/11/18 09:30:31;;;;;;;;;;;;;;;7.23;81.18;97819.41;5073519;28;20303;-75
2021/11/18 09:32:58;;;;;;;;;;;;;;;7.20;79.58;97820.56;5073482;28;19963;-75
2021/11/18 09:35:29;;;;;;;;;;;;;;;7.16;80.01;97827.06;5073678;28;20332;-74
2021/11/18 09:37:55;;;;;;;;;;;;;;;7.31;81.13;97829.84;5073760;28;20324;-75
2021/11/18 09:40:24;;;;;;;;;;;;;;;7.56;81.10;97830.66;5073030;28;19964;-74
2021/11/18 09:43:02;;;;;;;;;;;;;;;7.88;79.39;97837.63;5073644;28;19951;-74
2021/11/18 09:45:29;;;;;;;;;;;;;;;8.03;79.10;97837.75;5073366;28;20299;-74
2021/11/18 09:48:13;;;;;;;;;;;;;;;8.06;78.91;97836.59;5073202;28;19970;-74
2021/11/18 09:50:41;;;;;;;;;;;;;;;8.06;78.51;97837.44;5073205;28;19950;-74
2021/11/18 09:53:19;;;;;;;;;;;;;;;8.16;77.67;97833.81;5073452;28;19949;-75
2021/11/18 09:55:44;;;;;;;;;;;;;;;8.25;77.78;97841.47;5073704;28;19981;-75
2021/11/18 09:58:10;;;;;;;;;;;;;;;8.19;77.89;97834.28;5073629;28;19962;-76
2021/11/18 10:00:39;;;;;;;;;;;;;;;8.14;77.61;97829.53;5073570;28;19960;-75
2021/11/18 10:03:21;;;;;;;;;;;;;;;8.19;81.20;97839.53;5073176;28;20340;-77
2021/11/18 10:06:05;;;;;;;;;;;;;;;8.75;88.77;97831.63;5073339;28;19953;-78
2021/11/18 10:08:36;;;;;;;;;;;;;;;9.51;84.84;97832.59;5058114;28;19973;-75
2021/11/18 10:11:05;;;;;;;;;;;;;;;9.65;75.16;97825.75;5073594;28;19965;-75
2021/11/18 10:13:31;;;;;;;;;;;;;;;9.43;74.81;97829.19;5073294;28;19967;-75
2021/11/18 10:15:59;;;;;;;;;;;;;;;9.25;75.24;97821.66;5073100;28;20407;-75
2021/11/18 10:18:27;;;;;;;;;;;;;;;9.16;74.47;97823.53;5073110;28;19954;-75
2021/11/18 10:20:55;;;;;;;;;;;;;;;9.11;74.46;97829.28;5072997;28;19961;-75
2021/11/18 10:23:24;;;;;;;;;;;;;;;9.14;74.64;97833.34;5073729;28;19970;-75
2021/11/18 10:25:54;;;;;;;;;;;;;;;9.15;74.08;97837.59;5072986;28;19952;-75
2021/11/18 10:28:23;;;;;;;;;;;;;;;9.19;74.23;97825.78;5073477;28;19964;-74
2021/11/18 10:30:54;;;;;;;;;;;;;;;9.26;74.39;97824.13;5072692;28;19957;-75
2021/11/18 10:33:21;;;;;;;;;;;;;;;9.27;74.55;97817.88;5073217;28;20337;-75
2021/11/18 10:35:53;;;;;;;;;;;;;;;9.23;72.62;97816.59;5073152;28;19987;-75
2021/11/18 10:38:31;;;;;;;;;;;;;;;9.17;73.00;97811.25;5072807;28;19945;-75
2021/11/18 10:41:17;;;;;;;;;;;;;;;9.06;72.62;97808.03;5074129;28;19964;-75
2021/11/18 10:44:00;;;;;;;;;;;;;;;8.96;73.60;97811.88;5068877;28;19962;-74
2021/11/18 10:46:38;;;;;;;;;;;;;;;9.00;73.56;97819.22;5076167;28;19953;-75
2021/11/18 10:49:09;;;;;;;;;;;;;;;9.12;73.74;97814.41;5076554;28;19966;-75
2021/11/18 10:51:36;;;;;;;;;;;;;;;9.19;73.61;97811.88;5076588;28;19950;-74
2021/11/18 10:54:04;;;;;;;;;;;;;;;9.32;73.66;97809.47;5076112;28;20012;-74
2021/11/18 10:56:39;;;;;;;;;;;;;;;9.38;73.86;97811.41;5076585;28;19958;-74
2021/11/18 10:59:07;;;;;;;;;;;;;;;9.52;72.70;97802.78;5076552;28;19953;-74
2021/11/18 11:01:35;;;;;;;;;;;;;;;9.68;71.85;97795.75;5075534;28;20326;-74
2021/11/18 11:04:05;;;;;;;;;;;;;;;9.68;73.15;97793.13;5076274;28;19955;-74
2021/11/18 11:06:51;;;;;;;;;;;;;;;9.60;69.41;97775.69;5066799;28;20528;-75
2021/11/18 11:09:19;;;;;;;;;;;;;;;9.48;70.31;97780.53;5074880;28;19965;-75
2021/11/18 11:11:48;;;;;;;;;;;;;;;9.28;71.58;97779.41;5076474;28;19978;-74
2021/11/18 11:14:31;;;;;;;;;;;;;;;9.16;70.90;97765.13;5076271;28;20198;-75
2021/11/18 11:17:03;;;;;;;;;;;;;;;9.02;72.81;97774.56;5076101;28;20416;-75
2021/11/18 11:19:29;;;;;;;;;;;;;;;9.00;74.02;97774.72;5076548;28;20420;-75
2021/11/18 11:22:18;;;;;;;;;;;;;;;9.00;73.89;97779.16;5075920;28;19960;-74
2021/11/18 11:24:57;;;;;;;;;;;;;;;8.93;72.96;97782.47;5075911;28;19956;-75
2021/11/18 11:27:23;;;;;;;;;;;;;;;8.82;74.03;97775.03;5076238;28;19955;-75
2021/11/18 11:29:49;;;;;;;;;;;;;;;8.84;74.63;97780.06;5075784;28;19964;-75
2021/11/18 11:32:18;;;;;;;;;;;;;;;8.83;73.53;97781.88;5076229;28;19965;-75
2021/11/18 11:34:49;;;;;;;;;;;;;;;8.76;73.74;97787.97;5076102;28;19957;-75
2021/11/18 11:37:15;;;;;;;;;;;;;;;8.72;73.31;97783.09;5074971;28;19956;-74
2021/11/18 11:39:41;;;;;;;;;;;;;;;8.69;73.99;97775.59;5075473;28;20303;-75
2021/11/18 11:42:26;;;;;;;;;;;;;;;8.66;73.62;97777.75;5076075;28;19959;-75
2021/11/18 11:45:10;;;;;;;;;;;;;;;8.59;73.78;97780.22;5075505;28;19953;-74
2021/11/18 11:47:48;;;;;;;;;;;;;;;8.53;73.42;97776.50;5075703;28;19954;-74
2021/11/18 11:50:32;;;;;;;;;;;;;;;8.53;74.23;97792.19;5059491;28;19978;-75
2021/11/18 11:53:14;;;;;;;;;;;;;;;8.57;74.60;97776.13;5075509;28;19958;-74
2021/11/18 11:55:56;;;;;;;;;;;;;;;8.55;73.06;97768.50;5075478;28;20363;-75
2021/11/18 11:58:38;;;;;;;;;;;;;;;8.44;73.40;97767.09;5075180;28;19960;-74
2021/11/18 12:01:23;;;;;;;;;;;;;;;8.40;74.21;97767.53;5074019;28;20316;-74
2021/11/18 12:03:59;;;;;;;;;;;;;;;8.35;74.01;97768.06;5075220;28;19950;-75
2021/11/18 12:06:39;;;;;;;;;;;;;;;8.34;73.64;97776.91;5075156;28;19954;-76
2021/11/18 12:09:14;;;;;;;;;;;;;;;8.33;73.16;97785.72;5075109;28;19978;-76
2021/11/18 12:11:46;;;;;;;;;;;;;;;8.34;72.73;97782.94;5074977;28;19957;-74
2021/11/18 12:14:15;;;;;;;;;;;;;;;8.30;72.33;97781.66;5075045;28;19959;-76
2021/11/18 12:16:51;;;;;;;;;;;;;;;8.31;73.00;97783.25;5075178;28;19951;-76
2021/11/18 12:19:34;;;;;;;;;;;;;;;8.29;72.32;97785.25;5066717;28;19952;-75
2021/11/18 12:22:00;;;;;;;;;;;;;;;8.23;71.97;97788.53;5075026;28;20325;-75
2021/11/18 12:24:47;;;;;;;;;;;;;;;8.27;71.34;97778.53;5074685;28;19960;-75
2021/11/18 12:27:18;;;;;;;;;;;;;;;8.30;71.80;97776.41;5074576;28;19976;-75
2021/11/18 12:29:46;;;;;;;;;;;;;;;8.34;72.12;97776.91;5074794;28;19972;-74
2021/11/18 12:32:15;;;;;;;;;;;;;;;8.36;70.69;97774.94;5074545;28;19949;-75
2021/11/18 12:35:00;;;;;;;;;;;;;;;8.39;71.44;97771.97;5074703;28;19956;-74
2021/11/18 12:37:26;;;;;;;;;;;;;;;8.46;77.35;97775.56;5074633;28;19963;-74
2021/11/18 12:40:02;;;;;;;;;;;;;;;8.59;71.51;97768.94;5074427;28;19958;-74
2021/11/18 12:42:40;;;;;;;;;;;;;;;8.63;70.70;97765.81;5074547;28;19958;-74
2021/11/18 12:45:12;;;;;;;;;;;;;;;8.67;70.40;97763.66;5074271;28;19970;-74
2021/11/18 12:47:47;;;;;;;;;;;;;;;8.63;69.89;97776.28;5074781;28;19965;-73
2021/11/18 12:50:13;;;;;;;;;;;;;;;8.62;71.65;97777.25;5074176;28;19966;-74
2021/11/18 12:52:41;;;;;;;;;;;;;;;8.65;71.02;97774.31;5074091;28;20004;-74
2021/11/18 12:55:17;;;;;;;;;;;;;;;8.60;70.94;97781.84;5074171;28;19981;-74
2021/11/18 12:57:51;;;;;;;;;;;;;;;8.52;70.73;97782.72;5074071;28;19951;-74
2021/11/18 13:00:17;;;;;;;;;;;;;;;8.51;71.37;97772.44;5074544;28;19961;-74
2021/11/18 13:02:46;;;;;;;;;;;;;;;8.48;70.03;97760.53;5072728;28;20288;-74
2021/11/18 13:05:15;;;;;;;;;;;;;;;8.44;70.97;97754.00;5074060;28;19971;-74